createdAt,value
2024-01-05T00:00:21.655Z,58.19
2024-01-05T00:03:02.079Z,57.86
2024-01-05T00:05:35.389Z,56.97
2024-01-05T00:08:05.761Z,57.54
2024-01-05T00:10:47.445Z,57.25
2024-01-05T00:13:22.224Z,57.01
2024-01-05T00:15:53.586Z,57.28
2024-01-05T00:18:27.408Z,57.16
2024-01-05T00:20:58.619Z,57.38
2024-01-05T00:23:31.141Z,57.88
2024-01-05T00:26:06.540Z,57.54
2024-01-05T00:28:41.147Z,57.66
2024-01-05T00:31:15.002Z,57.13
2024-01-05T00:33:52.725Z,57.45
2024-01-05T00:36:26.230Z,56.87
2024-01-05T00:38:59.034Z,57.59
2024-01-05T00:41:30.294Z,57.35
2024-01-05T00:44:04.024Z,57.37
2024-01-05T00:46:35.868Z,57.62
2024-01-05T00:49:09.938Z,57.77
2024-01-05T00:51:40.358Z,57.32
2024-01-05T00:54:11.207Z,57.07
2024-01-05T00:56:45.419Z,57.82
2024-01-05T00:59:22.382Z,57.68
2024-01-05T01:01:54.828Z,57.82
2024-01-05T01:04:28.176Z,58.20
2024-01-05T01:07:03.126Z,57.77
2024-01-05T01:09:35.866Z,58.22
2024-01-05T01:12:11.657Z,58.14
2024-01-05T01:14:42.499Z,58.16
2024-01-05T01:17:17.718Z,58.51
2024-01-05T01:19:51.081Z,58.45
2024-01-05T01:22:23.193Z,58.70
2024-01-05T01:24:54.793Z,59.14
2024-01-05T01:27:32.349Z,58.62
2024-01-05T01:30:04.537Z,59.02
2024-01-05T01:32:43.691Z,58.43
2024-01-05T01:35:19.193Z,58.66
2024-01-05T01:37:55.654Z,59.31
2024-01-05T01:40:27.822Z,59.26
2024-01-05T01:42:59.748Z,59.37
2024-01-05T01:45:37.788Z,59.78
2024-01-05T01:48:09.064Z,60.31
2024-01-05T01:50:46.494Z,60.66
2024-01-05T01:53:23.678Z,60.62
2024-01-05T01:55:57.750Z,60.77
2024-01-05T01:58:32.008Z,61.22
2024-01-05T02:01:03.301Z,61.51
2024-01-05T02:03:37.815Z,61.52
2024-01-05T02:06:10.917Z,62.17
2024-01-05T02:08:51.795Z,62.71
2024-01-05T02:11:25.072Z,62.46
2024-01-05T02:13:55.843Z,62.79
2024-01-05T02:16:26.674Z,62.90
2024-01-05T02:18:59.769Z,63.04
2024-01-05T02:21:36.306Z,63.64
2024-01-05T02:24:13.634Z,63.91
2024-01-05T02:26:44.285Z,63.64
2024-01-05T02:29:22.976Z,64.38
2024-01-05T02:31:56.605Z,64.09
2024-01-05T02:34:29.677Z,64.37
2024-01-05T02:37:05.461Z,64.29
2024-01-05T02:39:38.871Z,63.95
2024-01-05T02:42:12.311Z,63.38
2024-01-05T02:44:42.773Z,63.88
2024-01-05T02:47:13.085Z,63.34
2024-01-05T02:49:44.593Z,61.81
2024-01-05T02:52:22.136Z,61.35
2024-01-05T02:55:02.738Z,60.43
2024-01-05T02:57:36.718Z,60.09
2024-01-05T03:00:09.405Z,59.34
2024-01-05T03:02:47.341Z,58.75
2024-01-05T03:05:22.258Z,58.63
2024-01-05T03:07:54.733Z,59.10
2024-01-05T03:10:31.233Z,59.01
2024-01-05T03:13:04.095Z,59.88
2024-01-05T03:15:42.075Z,59.66
2024-01-05T03:18:15.741Z,59.31
2024-01-05T03:20:46.630Z,59.55
2024-01-05T03:23:19.595Z,59.73
2024-01-05T03:25:57.548Z,59.38
2024-01-05T03:28:35.882Z,59.59
2024-01-05T03:31:06.992Z,59.70
2024-01-05T03:33:38.784Z,60.14
2024-01-05T03:36:10.648Z,60.01
2024-01-05T03:38:40.947Z,59.97
2024-01-05T03:41:20.117Z,60.51
2024-01-05T03:43:50.332Z,60.75
2024-01-05T03:46:21.483Z,60.63
2024-01-05T03:48:52.651Z,60.84
2024-01-05T03:51:26.572Z,61.27
2024-01-05T03:54:07.301Z,61.18
2024-01-05T03:56:50.377Z,60.88
2024-01-05T03:59:22.501Z,60.98
2024-01-05T04:01:56.062Z,61.03
2024-01-05T04:04:27.619Z,61.61
2024-01-05T04:07:01.252Z,61.60
2024-01-05T04:09:32.992Z,60.72
2024-01-05T04:12:13.755Z,61.09
2024-01-05T04:14:44.548Z,60.97
2024-01-05T04:17:18.538Z,60.79
2024-01-05T04:19:49.635Z,60.89
2024-01-05T04:22:22.935Z,61.24
2024-01-05T04:24:53.927Z,61.60
2024-01-05T04:27:27.785Z,61.78
2024-01-05T04:30:03.718Z,61.75
2024-01-05T04:32:41.050Z,62.18
2024-01-05T04:35:15.636Z,63.03
2024-01-05T04:37:46.461Z,63.05
2024-01-05T04:40:19.106Z,63.49
2024-01-05T04:42:52.489Z,63.60
2024-01-05T04:45:23.846Z,63.72
2024-01-05T04:47:54.992Z,64.30
2024-01-05T04:50:26.171Z,64.01
2024-01-05T04:52:59.286Z,64.26
2024-01-05T04:55:29.949Z,64.98
2024-01-05T04:58:06.119Z,65.39
2024-01-05T05:00:36.550Z,65.45
2024-01-05T05:03:11.499Z,65.88
2024-01-05T05:05:43.412Z,65.87
2024-01-05T05:08:17.820Z,66.13
2024-01-05T05:10:48.928Z,66.64
2024-01-05T05:13:24.951Z,66.08
2024-01-05T05:15:55.990Z,66.02
2024-01-05T05:18:28.853Z,66.03
2024-01-05T05:21:03.892Z,65.72
2024-01-05T05:23:34.579Z,65.50
2024-01-05T05:26:09.586Z,65.38
2024-01-05T05:28:46.309Z,65.12
2024-01-05T05:31:20.197Z,65.02
2024-01-05T05:33:51.391Z,64.87
2024-01-05T05:36:26.720Z,65.12
2024-01-05T05:38:59.622Z,65.54
2024-01-05T05:41:30.380Z,66.02
2024-01-05T05:44:05.847Z,66.08
2024-01-05T05:46:39.271Z,66.33
2024-01-05T05:49:15.861Z,66.83
2024-01-05T05:51:47.064Z,66.77
2024-01-05T05:54:18.328Z,68.08
2024-01-05T05:56:49.150Z,67.47
2024-01-05T05:59:29.064Z,66.94
2024-01-05T06:01:59.997Z,67.01
2024-01-05T06:04:30.326Z,67.16
2024-01-05T06:07:00.923Z,67.58
2024-01-05T06:09:31.818Z,67.46
2024-01-05T06:12:15.394Z,67.54
2024-01-05T06:14:52.029Z,68.13
2024-01-05T06:17:23.783Z,68.03
2024-01-05T06:19:57.702Z,68.46
2024-01-05T06:22:31.411Z,68.83
2024-01-05T06:25:01.884Z,67.75
2024-01-05T06:27:38.888Z,68.27
2024-01-05T06:30:16.037Z,68.00
2024-01-05T06:32:47.067Z,68.40
2024-01-05T06:35:23.939Z,68.48
2024-01-05T06:37:54.714Z,68.89
2024-01-05T06:40:25.917Z,68.98
2024-01-05T06:42:59.142Z,69.06
2024-01-05T06:45:33.738Z,68.71
2024-01-05T06:48:04.737Z,68.55
2024-01-05T06:50:37.738Z,69.09
2024-01-05T06:53:08.868Z,68.56
2024-01-05T06:55:40.328Z,68.49
2024-01-05T06:58:17.592Z,68.43
2024-01-05T07:00:51.253Z,68.20
2024-01-05T07:03:24.966Z,68.63
2024-01-05T07:06:02.874Z,68.28
2024-01-05T07:08:33.328Z,68.36
2024-01-05T07:11:08.687Z,68.43
2024-01-05T07:13:41.863Z,68.21
2024-01-05T07:16:22.979Z,67.41
2024-01-05T07:18:55.138Z,67.17
2024-01-05T07:21:26.013Z,66.86
2024-01-05T07:23:56.742Z,65.94
2024-01-05T07:26:27.973Z,65.13
2024-01-05T07:29:01.094Z,64.20
2024-01-05T07:31:34.569Z,62.57
2024-01-05T07:34:05.702Z,61.63
2024-01-05T07:36:37.058Z,62.16
2024-01-05T07:39:07.495Z,61.81
2024-01-05T07:41:47.602Z,61.64
2024-01-05T07:44:25.887Z,61.58
2024-01-05T07:47:00.997Z,61.52
2024-01-05T07:49:33.934Z,61.28
2024-01-05T07:52:09.624Z,60.24
2024-01-05T07:54:43.647Z,59.00
2024-01-05T07:57:19.691Z,58.75
2024-01-05T07:59:54.888Z,58.44
2024-01-05T08:02:30.730Z,57.56
2024-01-05T08:05:05.602Z,57.51
2024-01-05T08:07:36.425Z,57.01
2024-01-05T08:10:08.397Z,56.50
2024-01-05T08:12:46.393Z,56.46
2024-01-05T08:15:17.611Z,56.40
2024-01-05T08:17:53.333Z,56.78
2024-01-05T08:20:30.569Z,56.48
2024-01-05T08:23:08.118Z,56.91
2024-01-05T08:25:40.956Z,56.64
2024-01-05T08:28:14.034Z,56.92
2024-01-05T08:30:48.830Z,56.83
2024-01-05T08:33:22.416Z,56.96
2024-01-05T08:35:55.443Z,56.22
2024-01-05T08:38:26.620Z,55.83
2024-01-05T08:40:57.001Z,55.85
2024-01-05T08:43:28.907Z,55.11
2024-01-05T08:46:02.418Z,55.13
2024-01-05T08:48:35.313Z,54.97
2024-01-05T08:51:06.098Z,55.48
2024-01-05T08:53:36.522Z,55.19
2024-01-05T08:56:08.692Z,54.04
2024-01-05T08:58:42.010Z,54.35
2024-01-05T09:01:14.830Z,54.20
2024-01-05T09:03:50.681Z,53.87
2024-01-05T09:06:22.289Z,53.69
2024-01-05T09:08:55.532Z,53.36
2024-01-05T09:11:26.904Z,53.36
2024-01-05T09:13:57.287Z,53.85
2024-01-05T09:16:30.053Z,54.30
2024-01-05T09:19:05.553Z,54.69
2024-01-05T09:21:37.337Z,54.92
2024-01-05T09:24:09.278Z,55.18
2024-01-05T09:26:43.672Z,54.49
2024-01-05T09:29:14.671Z,54.08
2024-01-05T09:31:49.481Z,54.83
2024-01-05T09:34:28.830Z,54.75
2024-01-05T09:37:02.749Z,55.09
2024-01-05T09:39:33.047Z,54.73
2024-01-05T09:42:04.019Z,54.17
2024-01-05T09:44:35.832Z,54.56
2024-01-05T09:47:12.151Z,54.07
2024-01-05T09:49:49.857Z,53.83
2024-01-05T09:52:24.342Z,53.97
2024-01-05T09:54:57.988Z,53.42
2024-01-05T09:57:32.033Z,53.29
2024-01-05T10:00:05.382Z,53.28
2024-01-05T10:02:40.816Z,52.64
2024-01-05T10:05:15.540Z,52.41
2024-01-05T10:07:46.867Z,52.44
2024-01-05T10:10:17.238Z,51.68
2024-01-05T10:12:49.156Z,51.22
2024-01-05T10:15:22.638Z,49.65
2024-01-05T10:17:53.574Z,48.82
2024-01-05T10:20:33.375Z,48.65
2024-01-05T10:23:08.267Z,49.00
2024-01-05T10:25:40.566Z,51.34
2024-01-05T10:28:24.613Z,52.58
2024-01-05T10:30:56.817Z,53.73
2024-01-05T10:33:30.086Z,53.35
2024-01-05T10:36:08.918Z,53.47
2024-01-05T10:38:42.451Z,53.39
2024-01-05T10:41:13.363Z,53.01
2024-01-05T10:43:54.092Z,53.24
2024-01-05T10:46:26.166Z,53.60
2024-01-05T10:49:06.171Z,53.63
2024-01-05T10:51:40.518Z,52.91
2024-01-05T10:54:11.987Z,50.49
2024-01-05T10:56:48.388Z,49.03
2024-01-05T10:59:24.640Z,49.07
2024-01-05T11:01:59.298Z,48.23
2024-01-05T11:04:36.415Z,48.57
2024-01-05T11:07:10.862Z,48.75
2024-01-05T11:09:53.120Z,48.88
2024-01-05T11:12:44.375Z,48.56
2024-01-05T11:15:37.880Z,47.96
2024-01-05T11:18:40.533Z,48.01
2024-01-05T11:21:17.677Z,47.87
2024-01-05T11:23:55.388Z,47.85
2024-01-05T11:26:37.407Z,48.51
2024-01-05T11:29:14.270Z,47.97
2024-01-05T11:31:59.861Z,47.83
2024-01-05T11:34:39.255Z,47.85
2024-01-05T11:37:09.806Z,47.73
2024-01-05T11:39:56.692Z,47.81
2024-01-05T11:42:35.712Z,47.55
2024-01-05T11:45:16.132Z,47.38
2024-01-05T11:47:51.105Z,46.78
2024-01-05T11:50:29.022Z,47.14
2024-01-05T11:53:18.607Z,46.02
2024-01-05T11:55:57.487Z,46.67
2024-01-05T11:58:34.475Z,46.73
2024-01-05T12:01:08.574Z,46.14
2024-01-05T12:03:40.006Z,46.45
2024-01-05T12:06:13.653Z,46.27
2024-01-05T12:08:47.452Z,45.48
2024-01-05T12:11:24.331Z,45.76
2024-01-05T12:13:55.077Z,46.27
2024-01-05T12:16:29.630Z,45.82
2024-01-05T12:19:00.436Z,46.36
2024-01-05T12:21:34.797Z,46.06
2024-01-05T12:24:06.928Z,46.20
2024-01-05T12:26:40.497Z,45.94
2024-01-05T12:29:12.020Z,46.07
2024-01-05T12:31:48.191Z,46.11
2024-01-05T12:34:20.442Z,45.96
2024-01-05T12:36:51.300Z,46.07
2024-01-05T12:39:28.046Z,45.78
2024-01-05T12:42:02.720Z,46.14
2024-01-05T12:44:36.885Z,46.29
2024-01-05T12:47:08.868Z,46.05
2024-01-05T12:49:40.244Z,46.37
2024-01-05T12:52:16.159Z,46.41
2024-01-05T12:54:49.914Z,46.94
2024-01-05T12:57:28.330Z,46.83
2024-01-05T13:00:07.761Z,47.29
2024-01-05T13:02:42.261Z,47.65
2024-01-05T13:05:28.466Z,48.74
2024-01-05T13:07:59.916Z,49.63
2024-01-05T13:10:35.931Z,50.81
2024-01-05T13:13:12.901Z,50.86
2024-01-05T13:15:47.515Z,51.97
2024-01-05T13:18:21.677Z,51.71
2024-01-05T13:20:52.158Z,51.80
2024-01-05T13:23:25.999Z,51.95
2024-01-05T13:25:56.385Z,52.03
2024-01-05T13:28:30.412Z,52.13
2024-01-05T13:31:03.295Z,52.27
2024-01-05T13:33:36.528Z,52.67
2024-01-05T13:36:10.402Z,52.37
2024-01-05T13:38:41.155Z,52.59
2024-01-05T13:41:12.435Z,52.80
2024-01-05T13:43:43.318Z,53.17
2024-01-05T13:46:13.903Z,53.00
2024-01-05T13:48:53.855Z,53.11
2024-01-05T13:51:30.272Z,53.42
2024-01-05T13:54:13.739Z,53.41
2024-01-05T13:56:51.083Z,53.50
2024-01-05T13:59:25.299Z,53.72
2024-01-05T14:01:56.156Z,53.65
2024-01-05T14:04:29.893Z,54.08
2024-01-05T14:07:07.084Z,53.87
2024-01-05T14:09:40.417Z,54.40
2024-01-05T14:12:14.192Z,54.15
2024-01-05T14:14:49.959Z,54.98
2024-01-05T14:17:20.386Z,55.06
2024-01-05T14:19:53.791Z,55.06
2024-01-05T14:22:27.759Z,55.88
2024-01-05T14:24:59.148Z,55.54
2024-01-05T14:27:35.778Z,55.82
2024-01-05T14:30:11.391Z,56.25
2024-01-05T14:32:42.520Z,56.47
2024-01-05T14:35:15.355Z,56.44
2024-01-05T14:37:47.804Z,56.88
2024-01-05T14:40:20.331Z,57.45
2024-01-05T14:42:53.101Z,57.37
2024-01-05T14:45:29.881Z,57.88
2024-01-05T14:48:05.167Z,57.75
2024-01-05T14:50:43.376Z,58.05
2024-01-05T14:53:15.532Z,58.26
2024-01-05T14:55:47.128Z,58.51
2024-01-05T14:58:17.956Z,58.54
2024-01-05T15:00:53.063Z,59.09
2024-01-05T15:03:25.520Z,58.92
2024-01-05T15:06:00.492Z,59.21
2024-01-05T15:08:31.481Z,59.38
2024-01-05T15:11:06.111Z,59.57
2024-01-05T15:13:39.133Z,59.75
2024-01-05T15:16:14.509Z,59.73
2024-01-05T15:18:47.892Z,59.54
2024-01-05T15:21:27.017Z,62.38
2024-01-05T15:24:04.018Z,61.10
2024-01-05T15:26:35.277Z,60.41
2024-01-05T15:29:09.940Z,60.54
2024-01-05T15:31:50.777Z,60.70
2024-01-05T15:34:21.385Z,60.57
2024-01-05T15:36:53.199Z,60.97
2024-01-05T15:39:23.633Z,60.99
2024-01-05T15:41:58.222Z,61.05
2024-01-05T15:44:28.614Z,61.08
2024-01-05T15:47:02.400Z,61.19
2024-01-05T15:49:33.573Z,61.45
2024-01-05T15:52:16.344Z,61.87
2024-01-05T15:54:52.682Z,61.94
2024-01-05T15:57:28.679Z,61.78
2024-01-05T15:59:59.822Z,62.13
2024-01-05T16:02:40.697Z,62.02
2024-01-05T16:05:12.619Z,62.58
2024-01-05T16:07:43.825Z,62.35
2024-01-05T16:10:14.821Z,62.50
2024-01-05T16:12:45.595Z,62.33
2024-01-05T16:15:24.524Z,62.63
2024-01-05T16:17:58.496Z,62.65
2024-01-05T16:20:32.320Z,62.65
2024-01-05T16:23:05.698Z,62.68
2024-01-05T16:25:37.539Z,63.52
2024-01-05T16:28:24.169Z,63.47
2024-01-05T16:30:58.298Z,63.76
2024-01-05T16:33:35.118Z,63.84
2024-01-05T16:36:13.932Z,64.51
2024-01-05T16:38:45.889Z,64.50
2024-01-05T16:41:25.281Z,65.58
2024-01-05T16:43:56.769Z,66.08
2024-01-05T16:46:27.306Z,65.69
2024-01-05T16:49:00.871Z,65.77
2024-01-05T16:51:32.658Z,65.60
2024-01-05T16:54:06.753Z,66.01
2024-01-05T16:56:46.932Z,66.24
2024-01-05T16:59:21.409Z,66.82
2024-01-05T17:01:51.518Z,67.11
2024-01-05T17:04:24.622Z,67.28
2024-01-05T17:06:55.191Z,67.03
2024-01-05T17:09:25.949Z,67.49
2024-01-05T17:11:58.333Z,67.60
2024-01-05T17:14:30.209Z,68.15
2024-01-05T17:17:07.046Z,68.69
2024-01-05T17:19:40.103Z,69.48
2024-01-05T17:22:13.160Z,69.89
2024-01-05T17:24:44.723Z,70.05
2024-01-05T17:27:20.140Z,70.60
2024-01-05T17:29:56.314Z,71.20
2024-01-05T17:32:27.133Z,71.22
2024-01-05T17:35:11.282Z,71.29
2024-01-05T17:37:42.154Z,71.59
2024-01-05T17:40:15.712Z,71.66
2024-01-05T17:42:46.060Z,71.44
2024-01-05T17:45:17.161Z,71.91
2024-01-05T17:47:50.821Z,71.67
2024-01-05T17:50:28.107Z,71.66
2024-01-05T17:53:03.021Z,72.00
2024-01-05T17:55:36.911Z,71.76
2024-01-05T17:58:20.927Z,72.23
2024-01-05T18:00:53.824Z,71.88
2024-01-05T18:03:29.689Z,72.06
2024-01-05T18:06:03.081Z,72.05
2024-01-05T18:08:36.615Z,72.26
2024-01-05T18:11:10.873Z,72.40
2024-01-05T18:13:41.684Z,72.62
2024-01-05T18:16:24.392Z,73.00
2024-01-05T18:18:58.514Z,73.01
2024-01-05T18:21:34.666Z,73.11
2024-01-05T18:24:13.404Z,72.97
2024-01-05T18:26:45.594Z,72.97
2024-01-05T18:29:24.590Z,73.30
2024-01-05T18:32:07.919Z,73.34
2024-01-05T18:34:38.940Z,73.52
2024-01-05T18:37:17.922Z,73.29
2024-01-05T18:39:50.691Z,73.94
2024-01-05T18:42:21.125Z,73.66
2024-01-05T18:44:54.009Z,74.32
2024-01-05T18:47:32.057Z,73.93
2024-01-05T18:50:05.387Z,73.97
2024-01-05T18:52:44.953Z,74.72
2024-01-05T18:55:18.830Z,74.24
2024-01-05T18:57:50.926Z,74.24
2024-01-05T19:00:21.999Z,74.78
2024-01-05T19:02:59.344Z,74.82
2024-01-05T19:05:30.522Z,74.68
2024-01-05T19:08:06.312Z,74.81
2024-01-05T19:10:41.701Z,74.92
2024-01-05T19:13:15.092Z,75.36
2024-01-05T19:15:48.946Z,75.09
2024-01-05T19:18:23.086Z,75.32
2024-01-05T19:20:57.506Z,75.27
2024-01-05T19:23:31.443Z,75.70
2024-01-05T19:26:03.137Z,75.57
2024-01-05T19:28:33.825Z,75.49
2024-01-05T19:31:05.815Z,75.71
2024-01-05T19:33:37.313Z,75.94
2024-01-05T19:36:16.115Z,75.92
2024-01-05T19:38:55.158Z,76.30
2024-01-05T19:41:26.005Z,75.95
2024-01-05T19:43:58.410Z,76.39
2024-01-05T19:46:34.722Z,76.30
2024-01-05T19:49:05.121Z,76.23
2024-01-05T19:51:37.906Z,76.14
2024-01-05T19:54:11.216Z,76.21
2024-01-05T19:56:41.593Z,75.79
2024-01-05T19:59:12.457Z,75.94
2024-01-05T20:01:47.383Z,76.30
2024-01-05T20:04:27.340Z,75.86
2024-01-05T20:06:57.694Z,75.88
2024-01-05T20:09:31.687Z,75.99
2024-01-05T20:12:04.721Z,76.26
2024-01-05T20:14:38.195Z,76.32
2024-01-05T20:17:08.549Z,76.38
2024-01-05T20:19:41.772Z,76.26
2024-01-05T20:22:14.626Z,76.04
2024-01-05T20:24:50.700Z,76.13
2024-01-05T20:27:23.504Z,75.92
2024-01-05T20:29:55.369Z,75.97
2024-01-05T20:32:25.792Z,75.95
2024-01-05T20:34:59.807Z,76.20
2024-01-05T20:37:30.707Z,76.10
2024-01-05T20:40:04.038Z,76.19
2024-01-05T20:42:38.571Z,75.92
2024-01-05T20:45:13.025Z,75.92
2024-01-05T20:47:43.730Z,76.10
2024-01-05T20:50:14.127Z,75.75
2024-01-05T20:52:50.822Z,75.93
2024-01-05T20:55:31.324Z,75.50
2024-01-05T20:58:03.315Z,75.72
2024-01-05T21:00:33.919Z,75.61
2024-01-05T21:03:04.745Z,75.84
2024-01-05T21:05:35.828Z,75.64
2024-01-05T21:08:08.074Z,75.60
2024-01-05T21:10:44.554Z,75.45
2024-01-05T21:13:16.306Z,75.28
2024-01-05T21:15:50.892Z,75.46
2024-01-05T21:18:29.974Z,75.69
2024-01-05T21:21:02.216Z,76.07
2024-01-05T21:23:32.967Z,75.91
2024-01-05T21:26:07.338Z,75.96
2024-01-05T21:28:40.737Z,75.85
2024-01-05T21:31:13.632Z,76.24
2024-01-05T21:33:46.158Z,75.87
2024-01-05T21:36:19.874Z,76.06
2024-01-05T21:38:50.728Z,76.21
2024-01-05T21:41:26.170Z,76.49
2024-01-05T21:43:58.509Z,76.08
2024-01-05T21:46:31.440Z,76.49
2024-01-05T21:49:09.080Z,76.33
2024-01-05T21:51:47.517Z,76.52
2024-01-05T21:54:22.092Z,76.62
2024-01-05T21:56:55.511Z,76.91
2024-01-05T21:59:36.732Z,76.80
2024-01-05T22:02:08.112Z,76.50
2024-01-05T22:04:41.777Z,76.32
2024-01-05T22:07:12.958Z,76.61
2024-01-05T22:09:46.325Z,76.68
2024-01-05T22:12:19.429Z,76.31
2024-01-05T22:14:53.314Z,76.47
2024-01-05T22:17:24.384Z,76.72
2024-01-05T22:19:58.335Z,76.40
2024-01-05T22:22:29.626Z,76.63
2024-01-05T22:24:59.963Z,76.62
2024-01-05T22:27:36.020Z,76.81
2024-01-05T22:30:10.153Z,76.88
2024-01-05T22:32:44.833Z,77.35
2024-01-05T22:35:15.725Z,77.09
2024-01-05T22:37:47.953Z,77.04
2024-01-05T22:40:21.655Z,77.38
2024-01-05T22:42:55.448Z,76.95
2024-01-05T22:45:28.593Z,77.34
2024-01-05T22:47:59.896Z,76.84
2024-01-05T22:50:33.873Z,77.31
2024-01-05T22:53:06.237Z,77.19
2024-01-05T22:55:36.458Z,76.89
2024-01-05T22:58:09.933Z,76.86
2024-01-05T23:00:42.349Z,76.70
2024-01-05T23:03:15.532Z,76.70
2024-01-05T23:05:50.403Z,76.71
2024-01-05T23:08:24.049Z,76.62
2024-01-05T23:10:55.690Z,77.21
2024-01-05T23:13:29.105Z,76.63
2024-01-05T23:15:59.356Z,76.62
2024-01-05T23:18:32.228Z,76.61
2024-01-05T23:21:12.200Z,76.61
2024-01-05T23:23:49.900Z,76.74
2024-01-05T23:26:26.706Z,76.64
2024-01-05T23:29:04.355Z,76.40
2024-01-05T23:31:43.692Z,76.69
2024-01-05T23:34:17.101Z,76.90
2024-01-05T23:36:53.046Z,76.42
2024-01-05T23:39:24.760Z,76.36
2024-01-05T23:41:58.792Z,76.36
2024-01-05T23:44:38.193Z,76.50
2024-01-05T23:47:09.420Z,76.72
2024-01-05T23:49:48.632Z,76.45
2024-01-05T23:52:19.736Z,76.45
2024-01-05T23:54:50.966Z,76.74
2024-01-05T23:57:28.403Z,76.62
